sensor_id;sensor_type;location;lat;lon;timestamp;temperature;humidity
1592;DHT22;789;51.612;7.510;2022-10-16T00:00:43;15.60;1.00
1592;DHT22;789;51.612;7.510;2022-10-16T00:03:11;15.60;1.00
1592;DHT22;789;51.612;7.510;2022-10-16T00:05:39;15.60;1.00
1592;DHT22;789;51.612;7.510;2022-10-16T00:08:07;15.60;1.00
1592;DHT22;789;51.612;7.510;2022-10-16T00:10:35;15.60;1.00
1592;DHT22;789;51.612;7.510;2022-10-16T00:13:02;15.60;1.00
1592;DHT22;789;51.612;7.510;2022-10-16T00:15:29;15.60;1.00
1592;DHT22;789;51.612;7.510;2022-10-16T00:17:55;15.50;1.00
1592;DHT22;789;51.612;7.510;2022-10-16T00:20:22;15.60;1.00
1592;DHT22;789;51.612;7.510;2022-10-16T00:22:49;15.50;1.00
1592;DHT22;789;51.612;7.510;2022-10-16T00:25:16;15.50;1.00
1592;DHT22;789;51.612;7.510;2022-10-16T00:27:44;15.50;1.00
1592;DHT22;789;51.612;7.510;2022-10-16T00:30:10;15.50;1.00
1592;DHT22;789;51.612;7.510;2022-10-16T00:32:37;15.50;1.00
1592;DHT22;789;51.612;7.510;2022-10-16T00:35:05;15.60;1.00
1592;DHT22;789;51.612;7.510;2022-10-16T00:37:31;15.60;1.00
1592;DHT22;789;51.612;7.510;2022-10-16T00:39:58;15.60;1.00
1592;DHT22;789;51.612;7.510;2022-10-16T00:42:25;15.50;1.00
1592;DHT22;789;51.612;7.510;2022-10-16T00:44:54;15.40;1.00
1592;DHT22;789;51.612;7.510;2022-10-16T00:47:24;15.40;1.00
1592;DHT22;789;51.612;7.510;2022-10-16T00:49:57;15.40;1.00
1592;DHT22;789;51.612;7.510;2022-10-16T00:52:25;15.30;1.00
1592;DHT22;789;51.612;7.510;2022-10-16T00:54:52;15.30;1.00
1592;DHT22;789;51.612;7.510;2022-10-16T00:57:20;15.30;1.00
1592;DHT22;789;51.612;7.510;2022-10-16T00:59:47;15.30;1.00
1592;DHT22;789;51.612;7.510;2022-10-16T01:02:15;15.40;1.00
1592;DHT22;789;51.612;7.510;2022-10-16T01:04:44;15.30;1.00
1592;DHT22;789;51.612;7.510;2022-10-16T01:07:14;15.30;1.00
1592;DHT22;789;51.612;7.510;2022-10-16T01:09:51;15.30;1.00
1592;DHT22;789;51.612;7.510;2022-10-16T01:12:33;15.40;1.00
1592;DHT22;789;51.612;7.510;2022-10-16T01:15:08;15.30;1.00
1592;DHT22;789;51.612;7.510;2022-10-16T01:17:43;15.30;1.00
1592;DHT22;789;51.612;7.510;2022-10-16T01:20:18;15.30;1.00
1592;DHT22;789;51.612;7.510;2022-10-16T01:22:59;15.40;1.00
1592;DHT22;789;51.612;7.510;2022-10-16T01:25:49;15.30;1.00
1592;DHT22;789;51.612;7.510;2022-10-16T01:28:23;15.40;1.00
1592;DHT22;789;51.612;7.510;2022-10-16T01:30:54;15.40;1.00
1592;DHT22;789;51.612;7.510;2022-10-16T01:33:27;15.40;1.00
1592;DHT22;789;51.612;7.510;2022-10-16T01:35:59;15.50;1.00
1592;DHT22;789;51.612;7.510;2022-10-16T01:38:31;15.50;1.00
1592;DHT22;789;51.612;7.510;2022-10-16T01:41:02;15.50;1.00
1592;DHT22;789;51.612;7.510;2022-10-16T01:43:35;15.50;1.00
1592;DHT22;789;51.612;7.510;2022-10-16T01:46:04;15.50;1.00
1592;DHT22;789;51.612;7.510;2022-10-16T01:48:33;15.50;1.00
1592;DHT22;789;51.612;7.510;2022-10-16T01:51:04;15.40;1.00
1592;DHT22;789;51.612;7.510;2022-10-16T01:53:32;15.40;1.00
1592;DHT22;789;51.612;7.510;2022-10-16T01:56:00;15.40;1.00
1592;DHT22;789;51.612;7.510;2022-10-16T01:58:29;15.30;1.00
1592;DHT22;789;51.612;7.510;2022-10-16T02:01:01;15.30;1.00
1592;DHT22;789;51.612;7.510;2022-10-16T02:03:28;15.20;1.00
1592;DHT22;789;51.612;7.510;2022-10-16T02:05:57;15.20;1.00
1592;DHT22;789;51.612;7.510;2022-10-16T02:08:27;15.10;1.00
1592;DHT22;789;51.612;7.510;2022-10-16T02:10:55;15.20;1.00
1592;DHT22;789;51.612;7.510;2022-10-16T02:13:24;15.10;1.00
1592;DHT22;789;51.612;7.510;2022-10-16T02:15:52;15.00;1.00
1592;DHT22;789;51.612;7.510;2022-10-16T02:18:20;15.00;1.00
1592;DHT22;789;51.612;7.510;2022-10-16T02:20:51;15.00;1.00
1592;DHT22;789;51.612;7.510;2022-10-16T02:23:24;14.90;1.00
1592;DHT22;789;51.612;7.510;2022-10-16T02:25:54;15.00;1.00
1592;DHT22;789;51.612;7.510;2022-10-16T02:28:26;15.00;1.00
1592;DHT22;789;51.612;7.510;2022-10-16T02:30:58;15.00;1.00
1592;DHT22;789;51.612;7.510;2022-10-16T02:33:29;15.00;1.00
1592;DHT22;789;51.612;7.510;2022-10-16T02:35:57;15.00;1.00
1592;DHT22;789;51.612;7.510;2022-10-16T02:38:24;14.90;1.00
1592;DHT22;789;51.612;7.510;2022-10-16T02:40:52;14.90;1.00
1592;DHT22;789;51.612;7.510;2022-10-16T02:43:19;15.00;1.00
1592;DHT22;789;51.612;7.510;2022-10-16T02:45:46;15.00;1.00
1592;DHT22;789;51.612;7.510;2022-10-16T02:48:13;15.00;1.00
1592;DHT22;789;51.612;7.510;2022-10-16T02:50:41;15.00;1.00
1592;DHT22;789;51.612;7.510;2022-10-16T02:53:08;15.10;1.00
1592;DHT22;789;51.612;7.510;2022-10-16T02:55:35;15.10;1.00
1592;DHT22;789;51.612;7.510;2022-10-16T02:58:01;15.10;1.00
1592;DHT22;789;51.612;7.510;2022-10-16T03:00:28;15.10;1.00
1592;DHT22;789;51.612;7.510;2022-10-16T03:02:55;15.10;1.00
1592;DHT22;789;51.612;7.510;2022-10-16T03:05:21;15.00;1.00
1592;DHT22;789;51.612;7.510;2022-10-16T03:07:49;15.00;1.00
1592;DHT22;789;51.612;7.510;2022-10-16T03:10:17;15.10;1.00
1592;DHT22;789;51.612;7.510;2022-10-16T03:12:44;15.10;1.00
1592;DHT22;789;51.612;7.510;2022-10-16T03:15:11;15.20;1.00
1592;DHT22;789;51.612;7.510;2022-10-16T03:17:38;15.20;1.00
1592;DHT22;789;51.612;7.510;2022-10-16T03:20:05;15.20;1.00
1592;DHT22;789;51.612;7.510;2022-10-16T03:22:32;15.20;1.00
1592;DHT22;789;51.612;7.510;2022-10-16T03:25:00;15.20;1.00
1592;DHT22;789;51.612;7.510;2022-10-16T03:27:27;15.10;1.00
1592;DHT22;789;51.612;7.510;2022-10-16T03:29:54;15.10;1.00
1592;DHT22;789;51.612;7.510;2022-10-16T03:32:20;15.20;1.00
1592;DHT22;789;51.612;7.510;2022-10-16T03:34:47;15.10;1.00
1592;DHT22;789;51.612;7.510;2022-10-16T03:37:14;15.20;1.00
1592;DHT22;789;51.612;7.510;2022-10-16T03:39:40;15.20;1.00
1592;DHT22;789;51.612;7.510;2022-10-16T03:42:08;15.20;1.00
1592;DHT22;789;51.612;7.510;2022-10-16T03:44:35;15.20;1.00
1592;DHT22;789;51.612;7.510;2022-10-16T03:47:02;15.20;1.00
1592;DHT22;789;51.612;7.510;2022-10-16T03:49:28;15.20;1.00
1592;DHT22;789;51.612;7.510;2022-10-16T03:51:55;15.20;1.00
1592;DHT22;789;51.612;7.510;2022-10-16T03:54:22;15.20;1.00
1592;DHT22;789;51.612;7.510;2022-10-16T03:56:48;15.10;1.00
1592;DHT22;789;51.612;7.510;2022-10-16T03:59:16;15.10;1.00
1592;DHT22;789;51.612;7.510;2022-10-16T04:01:43;15.10;1.00
1592;DHT22;789;51.612;7.510;2022-10-16T04:04:10;15.10;1.00
1592;DHT22;789;51.612;7.510;2022-10-16T04:06:36;15.00;1.00
1592;DHT22;789;51.612;7.510;2022-10-16T04:09:03;15.00;1.00
1592;DHT22;789;51.612;7.510;2022-10-16T04:11:30;15.00;1.00
1592;DHT22;789;51.612;7.510;2022-10-16T04:13:57;14.90;1.00
1592;DHT22;789;51.612;7.510;2022-10-16T04:16:25;14.90;1.00
1592;DHT22;789;51.612;7.510;2022-10-16T04:18:51;14.80;1.00
1592;DHT22;789;51.612;7.510;2022-10-16T04:21:18;14.80;1.00
1592;DHT22;789;51.612;7.510;2022-10-16T04:23:45;14.80;1.00
1592;DHT22;789;51.612;7.510;2022-10-16T04:26:11;14.80;1.00
1592;DHT22;789;51.612;7.510;2022-10-16T04:28:38;14.80;1.00
1592;DHT22;789;51.612;7.510;2022-10-16T04:31:06;14.80;1.00
1592;DHT22;789;51.612;7.510;2022-10-16T04:33:34;14.80;1.00
1592;DHT22;789;51.612;7.510;2022-10-16T04:36:02;14.90;1.00
1592;DHT22;789;51.612;7.510;2022-10-16T04:38:29;14.90;1.00
1592;DHT22;789;51.612;7.510;2022-10-16T04:40:56;14.80;1.00
1592;DHT22;789;51.612;7.510;2022-10-16T04:43:23;14.80;1.00
1592;DHT22;789;51.612;7.510;2022-10-16T04:45:50;14.90;1.00
1592;DHT22;789;51.612;7.510;2022-10-16T04:48:17;14.80;1.00
1592;DHT22;789;51.612;7.510;2022-10-16T04:50:45;14.80;1.00
1592;DHT22;789;51.612;7.510;2022-10-16T04:53:12;14.80;1.00
1592;DHT22;789;51.612;7.510;2022-10-16T04:55:39;14.80;1.00
1592;DHT22;789;51.612;7.510;2022-10-16T04:58:06;14.80;1.00
1592;DHT22;789;51.612;7.510;2022-10-16T05:00:33;14.80;1.00
1592;DHT22;789;51.612;7.510;2022-10-16T05:03:00;14.80;1.00
1592;DHT22;789;51.612;7.510;2022-10-16T05:05:27;14.80;1.00
1592;DHT22;789;51.612;7.510;2022-10-16T05:07:55;14.80;1.00
1592;DHT22;789;51.612;7.510;2022-10-16T05:10:22;14.80;1.00
1592;DHT22;789;51.612;7.510;2022-10-16T05:12:49;14.80;1.00
1592;DHT22;789;51.612;7.510;2022-10-16T05:15:16;14.80;1.00
1592;DHT22;789;51.612;7.510;2022-10-16T05:17:43;14.80;1.00
1592;DHT22;789;51.612;7.510;2022-10-16T05:20:11;14.80;1.00
1592;DHT22;789;51.612;7.510;2022-10-16T05:22:38;14.80;1.00
1592;DHT22;789;51.612;7.510;2022-10-16T05:25:06;14.70;1.00
1592;DHT22;789;51.612;7.510;2022-10-16T05:27:33;14.70;1.00
1592;DHT22;789;51.612;7.510;2022-10-16T05:30:00;14.80;1.00
1592;DHT22;789;51.612;7.510;2022-10-16T05:32:27;14.80;1.00
1592;DHT22;789;51.612;7.510;2022-10-16T05:34:53;14.80;1.00
1592;DHT22;789;51.612;7.510;2022-10-16T05:37:20;14.80;1.00
1592;DHT22;789;51.612;7.510;2022-10-16T05:39:47;14.80;1.00
1592;DHT22;789;51.612;7.510;2022-10-16T05:42:15;14.80;1.00
1592;DHT22;789;51.612;7.510;2022-10-16T05:44:41;14.80;1.00
1592;DHT22;789;51.612;7.510;2022-10-16T05:47:08;14.80;1.00
1592;DHT22;789;51.612;7.510;2022-10-16T05:49:36;14.80;1.00
1592;DHT22;789;51.612;7.510;2022-10-16T05:52:02;14.90;1.00
1592;DHT22;789;51.612;7.510;2022-10-16T05:54:29;14.90;1.00
1592;DHT22;789;51.612;7.510;2022-10-16T05:56:56;14.90;1.00
1592;DHT22;789;51.612;7.510;2022-10-16T05:59:24;14.90;1.00
1592;DHT22;789;51.612;7.510;2022-10-16T06:01:50;14.90;1.00
1592;DHT22;789;51.612;7.510;2022-10-16T06:04:18;14.80;1.00
1592;DHT22;789;51.612;7.510;2022-10-16T06:06:45;14.80;1.00
1592;DHT22;789;51.612;7.510;2022-10-16T06:09:12;14.80;1.00
1592;DHT22;789;51.612;7.510;2022-10-16T06:11:39;14.80;1.00
1592;DHT22;789;51.612;7.510;2022-10-16T06:14:05;14.80;1.00
1592;DHT22;789;51.612;7.510;2022-10-16T06:16:34;14.80;1.00
1592;DHT22;789;51.612;7.510;2022-10-16T06:19:02;14.80;1.00
1592;DHT22;789;51.612;7.510;2022-10-16T06:21:32;14.90;1.00
1592;DHT22;789;51.612;7.510;2022-10-16T06:23:58;14.90;1.00
1592;DHT22;789;51.612;7.510;2022-10-16T06:26:27;14.90;1.00
1592;DHT22;789;51.612;7.510;2022-10-16T06:28:54;14.90;1.00
1592;DHT22;789;51.612;7.510;2022-10-16T06:31:21;14.90;1.00
1592;DHT22;789;51.612;7.510;2022-10-16T06:33:51;14.90;1.00
1592;DHT22;789;51.612;7.510;2022-10-16T06:36:18;15.00;1.00
1592;DHT22;789;51.612;7.510;2022-10-16T06:38:45;15.00;1.00
1592;DHT22;789;51.612;7.510;2022-10-16T06:41:14;15.00;1.00
1592;DHT22;789;51.612;7.510;2022-10-16T06:43:41;15.10;1.00
1592;DHT22;789;51.612;7.510;2022-10-16T06:46:10;15.20;1.00
1592;DHT22;789;51.612;7.510;2022-10-16T06:48:38;15.20;1.00
1592;DHT22;789;51.612;7.510;2022-10-16T06:51:08;15.20;1.00
1592;DHT22;789;51.612;7.510;2022-10-16T06:53:37;15.20;1.00
1592;DHT22;789;51.612;7.510;2022-10-16T06:56:08;15.20;1.00
1592;DHT22;789;51.612;7.510;2022-10-16T06:58:35;15.20;1.00
1592;DHT22;789;51.612;7.510;2022-10-16T07:01:02;15.30;1.00
1592;DHT22;789;51.612;7.510;2022-10-16T07:03:29;15.30;1.00
1592;DHT22;789;51.612;7.510;2022-10-16T07:05:56;15.30;1.00
1592;DHT22;789;51.612;7.510;2022-10-16T07:08:24;15.40;1.00
1592;DHT22;789;51.612;7.510;2022-10-16T07:10:58;15.50;1.00
1592;DHT22;789;51.612;7.510;2022-10-16T07:13:25;15.60;1.00
1592;DHT22;789;51.612;7.510;2022-10-16T07:15:52;15.70;1.00
1592;DHT22;789;51.612;7.510;2022-10-16T07:18:18;15.80;1.00
1592;DHT22;789;51.612;7.510;2022-10-16T07:20:45;16.00;1.00
1592;DHT22;789;51.612;7.510;2022-10-16T07:23:12;16.10;1.00
1592;DHT22;789;51.612;7.510;2022-10-16T07:25:40;16.40;1.00
1592;DHT22;789;51.612;7.510;2022-10-16T07:28:06;17.00;1.00
1592;DHT22;789;51.612;7.510;2022-10-16T07:30:35;17.80;1.00
1592;DHT22;789;51.612;7.510;2022-10-16T07:33:02;18.40;1.00
1592;DHT22;789;51.612;7.510;2022-10-16T07:35:29;18.60;1.00
1592;DHT22;789;51.612;7.510;2022-10-16T07:37:56;18.40;1.00
1592;DHT22;789;51.612;7.510;2022-10-16T07:40:22;18.20;1.00
1592;DHT22;789;51.612;7.510;2022-10-16T07:42:50;18.00;1.00
1592;DHT22;789;51.612;7.510;2022-10-16T07:45:17;17.70;1.00
1592;DHT22;789;51.612;7.510;2022-10-16T07:47:44;17.50;1.00
1592;DHT22;789;51.612;7.510;2022-10-16T07:50:11;17.60;1.00
1592;DHT22;789;51.612;7.510;2022-10-16T07:52:37;18.30;1.00
1592;DHT22;789;51.612;7.510;2022-10-16T07:55:05;19.20;1.00
1592;DHT22;789;51.612;7.510;2022-10-16T07:57:31;20.00;1.00
1592;DHT22;789;51.612;7.510;2022-10-16T08:00:00;20.90;1.00
1592;DHT22;789;51.612;7.510;2022-10-16T08:02:26;21.30;1.00
1592;DHT22;789;51.612;7.510;2022-10-16T08:04:53;21.70;1.00
1592;DHT22;789;51.612;7.510;2022-10-16T08:07:19;22.20;1.00
1592;DHT22;789;51.612;7.510;2022-10-16T08:09:49;23.00;1.00
1592;DHT22;789;51.612;7.510;2022-10-16T08:12:16;24.30;1.00
1592;DHT22;789;51.612;7.510;2022-10-16T08:14:43;25.80;1.00
1592;DHT22;789;51.612;7.510;2022-10-16T08:17:13;27.10;1.00
1592;DHT22;789;51.612;7.510;2022-10-16T08:19:44;28.00;1.00
1592;DHT22;789;51.612;7.510;2022-10-16T08:22:11;29.20;1.00
1592;DHT22;789;51.612;7.510;2022-10-16T08:24:38;30.40;1.00
1592;DHT22;789;51.612;7.510;2022-10-16T08:27:05;31.10;1.00
1592;DHT22;789;51.612;7.510;2022-10-16T08:29:32;31.30;1.00
1592;DHT22;789;51.612;7.510;2022-10-16T08:31:58;31.70;1.00
1592;DHT22;789;51.612;7.510;2022-10-16T08:34:26;31.10;1.00
1592;DHT22;789;51.612;7.510;2022-10-16T08:36:53;30.90;1.00
1592;DHT22;789;51.612;7.510;2022-10-16T08:39:20;30.40;1.00
1592;DHT22;789;51.612;7.510;2022-10-16T08:42:13;30.00;1.00
1592;DHT22;789;51.612;7.510;2022-10-16T08:45:10;30.60;1.00
1592;DHT22;789;51.612;7.510;2022-10-16T08:47:48;31.50;1.00
1592;DHT22;789;51.612;7.510;2022-10-16T08:50:24;32.10;1.00
1592;DHT22;789;51.612;7.510;2022-10-16T08:52:53;32.60;1.00
1592;DHT22;789;51.612;7.510;2022-10-16T08:55:30;33.00;1.00
1592;DHT22;789;51.612;7.510;2022-10-16T08:57:59;33.20;1.00
1592;DHT22;789;51.612;7.510;2022-10-16T09:00:27;33.70;1.00
1592;DHT22;789;51.612;7.510;2022-10-16T09:03:03;33.50;1.00
1592;DHT22;789;51.612;7.510;2022-10-16T09:05:57;32.50;1.00
1592;DHT22;789;51.612;7.510;2022-10-16T09:08:35;31.70;1.00
1592;DHT22;789;51.612;7.510;2022-10-16T09:11:08;31.90;1.00
1592;DHT22;789;51.612;7.510;2022-10-16T09:13:47;32.40;1.00
1592;DHT22;789;51.612;7.510;2022-10-16T09:16:18;32.60;1.00
1592;DHT22;789;51.612;7.510;2022-10-16T09:18:50;33.10;1.00
1592;DHT22;789;51.612;7.510;2022-10-16T09:21:21;33.70;1.00
1592;DHT22;789;51.612;7.510;2022-10-16T09:23:50;34.40;1.00
1592;DHT22;789;51.612;7.510;2022-10-16T09:26:17;34.70;1.00
1592;DHT22;789;51.612;7.510;2022-10-16T09:28:45;34.90;1.00
1592;DHT22;789;51.612;7.510;2022-10-16T09:31:18;35.10;1.00
1592;DHT22;789;51.612;7.510;2022-10-16T09:33:49;35.20;1.00
1592;DHT22;789;51.612;7.510;2022-10-16T09:36:16;35.40;1.00
1592;DHT22;789;51.612;7.510;2022-10-16T09:38:45;35.20;1.00
1592;DHT22;789;51.612;7.510;2022-10-16T09:41:16;35.20;1.00
1592;DHT22;789;51.612;7.510;2022-10-16T09:43:48;34.80;1.00
1592;DHT22;789;51.612;7.510;2022-10-16T09:46:26;33.90;1.00
1592;DHT22;789;51.612;7.510;2022-10-16T09:48:56;33.30;1.00
1592;DHT22;789;51.612;7.510;2022-10-16T09:51:26;32.70;1.00
1592;DHT22;789;51.612;7.510;2022-10-16T09:53:58;32.80;1.00
1592;DHT22;789;51.612;7.510;2022-10-16T09:56:26;33.00;1.00
1592;DHT22;789;51.612;7.510;2022-10-16T09:58:55;32.40;1.00
1592;DHT22;789;51.612;7.510;2022-10-16T10:01:26;32.00;1.00
1592;DHT22;789;51.612;7.510;2022-10-16T10:03:56;32.40;1.00
1592;DHT22;789;51.612;7.510;2022-10-16T10:06:28;32.50;1.00
1592;DHT22;789;51.612;7.510;2022-10-16T10:09:00;32.30;1.00
1592;DHT22;789;51.612;7.510;2022-10-16T10:11:39;32.10;1.00
1592;DHT22;789;51.612;7.510;2022-10-16T10:14:08;31.50;1.00
1592;DHT22;789;51.612;7.510;2022-10-16T10:16:39;30.90;1.00
1592;DHT22;789;51.612;7.510;2022-10-16T10:19:14;30.80;1.00
1592;DHT22;789;51.612;7.510;2022-10-16T10:21:41;30.90;1.00
1592;DHT22;789;51.612;7.510;2022-10-16T10:24:11;31.20;1.00
1592;DHT22;789;51.612;7.510;2022-10-16T10:26:39;30.90;1.00
1592;DHT22;789;51.612;7.510;2022-10-16T10:29:12;30.40;1.00
1592;DHT22;789;51.612;7.510;2022-10-16T10:31:46;30.20;1.00
1592;DHT22;789;51.612;7.510;2022-10-16T10:34:39;30.00;1.00
1592;DHT22;789;51.612;7.510;2022-10-16T10:37:27;30.10;1.00
1592;DHT22;789;51.612;7.510;2022-10-16T10:40:04;29.90;1.00
1592;DHT22;789;51.612;7.510;2022-10-16T10:42:38;30.40;1.00
1592;DHT22;789;51.612;7.510;2022-10-16T10:45:28;31.00;1.00
1592;DHT22;789;51.612;7.510;2022-10-16T10:48:26;32.40;1.00
1592;DHT22;789;51.612;7.510;2022-10-16T10:51:03;33.50;1.00
1592;DHT22;789;51.612;7.510;2022-10-16T10:53:41;34.30;1.00
1592;DHT22;789;51.612;7.510;2022-10-16T10:56:23;34.50;1.00
1592;DHT22;789;51.612;7.510;2022-10-16T10:59:27;34.80;1.00
1592;DHT22;789;51.612;7.510;2022-10-16T11:02:00;35.60;1.00
1592;DHT22;789;51.612;7.510;2022-10-16T11:04:47;36.00;1.00
1592;DHT22;789;51.612;7.510;2022-10-16T11:07:20;36.90;1.00
1592;DHT22;789;51.612;7.510;2022-10-16T11:09:51;37.10;1.00
1592;DHT22;789;51.612;7.510;2022-10-16T11:12:21;37.20;1.00
1592;DHT22;789;51.612;7.510;2022-10-16T11:14:55;36.50;1.00
1592;DHT22;789;51.612;7.510;2022-10-16T11:17:27;35.50;1.00
1592;DHT22;789;51.612;7.510;2022-10-16T11:19:58;34.00;1.00
1592;DHT22;789;51.612;7.510;2022-10-16T11:22:32;33.20;1.00
1592;DHT22;789;51.612;7.510;2022-10-16T11:25:06;32.30;1.00
1592;DHT22;789;51.612;7.510;2022-10-16T11:27:43;31.40;1.00
1592;DHT22;789;51.612;7.510;2022-10-16T11:30:16;31.20;1.00
1592;DHT22;789;51.612;7.510;2022-10-16T11:32:52;31.50;1.00
1592;DHT22;789;51.612;7.510;2022-10-16T11:35:23;31.50;1.00
1592;DHT22;789;51.612;7.510;2022-10-16T11:37:53;31.40;1.00
1592;DHT22;789;51.612;7.510;2022-10-16T11:40:25;31.00;1.00
1592;DHT22;789;51.612;7.510;2022-10-16T11:43:00;30.50;1.00
1592;DHT22;789;51.612;7.510;2022-10-16T11:45:34;30.10;1.00
1592;DHT22;789;51.612;7.510;2022-10-16T11:48:10;29.60;1.00
1592;DHT22;789;51.612;7.510;2022-10-16T11:50:45;29.90;1.00
1592;DHT22;789;51.612;7.510;2022-10-16T11:53:21;30.30;1.00
1592;DHT22;789;51.612;7.510;2022-10-16T11:55:49;31.30;1.00
1592;DHT22;789;51.612;7.510;2022-10-16T11:58:24;32.40;1.00
1592;DHT22;789;51.612;7.510;2022-10-16T12:00:58;33.40;1.00
1592;DHT22;789;51.612;7.510;2022-10-16T12:03:29;33.80;1.00
1592;DHT22;789;51.612;7.510;2022-10-16T12:06:11;34.00;1.00
1592;DHT22;789;51.612;7.510;2022-10-16T12:08:40;34.50;1.00
1592;DHT22;789;51.612;7.510;2022-10-16T12:11:08;34.90;1.00
1592;DHT22;789;51.612;7.510;2022-10-16T12:13:38;35.30;1.00
1592;DHT22;789;51.612;7.510;2022-10-16T12:16:07;35.50;1.00
1592;DHT22;789;51.612;7.510;2022-10-16T12:18:47;34.90;1.00
1592;DHT22;789;51.612;7.510;2022-10-16T12:21:15;33.90;1.00
1592;DHT22;789;51.612;7.510;2022-10-16T12:23:48;32.90;1.00
1592;DHT22;789;51.612;7.510;2022-10-16T12:26:24;31.70;1.00
1592;DHT22;789;51.612;7.510;2022-10-16T12:29:12;30.50;1.00
1592;DHT22;789;51.612;7.510;2022-10-16T12:31:44;29.50;1.00
1592;DHT22;789;51.612;7.510;2022-10-16T12:34:21;28.40;1.00
1592;DHT22;789;51.612;7.510;2022-10-16T12:36:49;27.70;1.00
1592;DHT22;789;51.612;7.510;2022-10-16T12:39:21;27.20;1.00
1592;DHT22;789;51.612;7.510;2022-10-16T12:42:00;26.70;1.00
1592;DHT22;789;51.612;7.510;2022-10-16T12:44:32;26.30;1.00
1592;DHT22;789;51.612;7.510;2022-10-16T12:47:00;25.90;1.00
1592;DHT22;789;51.612;7.510;2022-10-16T12:49:34;25.50;1.00
1592;DHT22;789;51.612;7.510;2022-10-16T12:52:02;25.20;1.00
1592;DHT22;789;51.612;7.510;2022-10-16T12:54:30;24.80;1.00
1592;DHT22;789;51.612;7.510;2022-10-16T12:57:23;24.50;1.00
1592;DHT22;789;51.612;7.510;2022-10-16T13:00:01;24.30;1.00
1592;DHT22;789;51.612;7.510;2022-10-16T13:03:00;24.10;1.00
1592;DHT22;789;51.612;7.510;2022-10-16T13:05:38;24.00;1.00
1592;DHT22;789;51.612;7.510;2022-10-16T13:08:25;23.90;1.00
1592;DHT22;789;51.612;7.510;2022-10-16T13:11:01;23.80;1.00
1592;DHT22;789;51.612;7.510;2022-10-16T13:13:51;23.80;1.00
1592;DHT22;789;51.612;7.510;2022-10-16T13:16:26;23.70;1.00
1592;DHT22;789;51.612;7.510;2022-10-16T13:19:06;23.60;1.00
1592;DHT22;789;51.612;7.510;2022-10-16T13:21:42;23.60;1.00
1592;DHT22;789;51.612;7.510;2022-10-16T13:24:21;23.50;1.00
1592;DHT22;789;51.612;7.510;2022-10-16T13:26:53;23.50;1.00
1592;DHT22;789;51.612;7.510;2022-10-16T13:29:22;23.40;1.00
1592;DHT22;789;51.612;7.510;2022-10-16T13:31:50;23.40;1.00
1592;DHT22;789;51.612;7.510;2022-10-16T13:34:19;23.40;1.00
1592;DHT22;789;51.612;7.510;2022-10-16T13:36:49;23.30;1.00
1592;DHT22;789;51.612;7.510;2022-10-16T13:39:22;23.20;1.00
1592;DHT22;789;51.612;7.510;2022-10-16T13:42:00;23.00;1.00
1592;DHT22;789;51.612;7.510;2022-10-16T13:44:31;22.90;1.00
1592;DHT22;789;51.612;7.510;2022-10-16T13:47:03;22.70;1.00
1592;DHT22;789;51.612;7.510;2022-10-16T13:49:29;22.40;1.00
1592;DHT22;789;51.612;7.510;2022-10-16T13:51:57;22.10;1.00
1592;DHT22;789;51.612;7.510;2022-10-16T13:54:26;22.00;1.00
1592;DHT22;789;51.612;7.510;2022-10-16T13:56:54;21.80;1.00
1592;DHT22;789;51.612;7.510;2022-10-16T13:59:26;21.70;1.00
1592;DHT22;789;51.612;7.510;2022-10-16T14:01:55;21.70;1.00
1592;DHT22;789;51.612;7.510;2022-10-16T14:04:32;21.70;1.00
1592;DHT22;789;51.612;7.510;2022-10-16T14:06:59;21.60;1.00
1592;DHT22;789;51.612;7.510;2022-10-16T14:09:27;21.40;1.00
1592;DHT22;789;51.612;7.510;2022-10-16T14:11:57;21.30;1.00
1592;DHT22;789;51.612;7.510;2022-10-16T14:14:27;21.10;1.00
1592;DHT22;789;51.612;7.510;2022-10-16T14:16:56;21.10;1.00
1592;DHT22;789;51.612;7.510;2022-10-16T14:19:26;21.10;1.00
1592;DHT22;789;51.612;7.510;2022-10-16T14:21:54;21.10;1.00
1592;DHT22;789;51.612;7.510;2022-10-16T14:24:31;21.10;1.00
1592;DHT22;789;51.612;7.510;2022-10-16T14:26:58;21.10;1.00
1592;DHT22;789;51.612;7.510;2022-10-16T14:29:26;21.20;1.00
1592;DHT22;789;51.612;7.510;2022-10-16T14:31:55;21.20;1.00
1592;DHT22;789;51.612;7.510;2022-10-16T14:34:32;21.30;1.00
1592;DHT22;789;51.612;7.510;2022-10-16T14:37:00;21.40;1.00
1592;DHT22;789;51.612;7.510;2022-10-16T14:39:32;21.40;1.00
1592;DHT22;789;51.612;7.510;2022-10-16T14:41:59;21.40;1.00
1592;DHT22;789;51.612;7.510;2022-10-16T14:44:30;21.40;1.00
1592;DHT22;789;51.612;7.510;2022-10-16T14:46:58;21.50;1.00
1592;DHT22;789;51.612;7.510;2022-10-16T14:49:34;21.40;1.00
1592;DHT22;789;51.612;7.510;2022-10-16T14:52:01;21.30;1.00
1592;DHT22;789;51.612;7.510;2022-10-16T14:54:28;21.20;1.00
1592;DHT22;789;51.612;7.510;2022-10-16T14:56:57;21.10;1.00
1592;DHT22;789;51.612;7.510;2022-10-16T14:59:28;21.00;1.00
1592;DHT22;789;51.612;7.510;2022-10-16T15:01:56;21.00;1.00
1592;DHT22;789;51.612;7.510;2022-10-16T15:04:23;21.10;1.00
1592;DHT22;789;51.612;7.510;2022-10-16T15:06:51;21.10;1.00
1592;DHT22;789;51.612;7.510;2022-10-16T15:09:18;21.30;1.00
1592;DHT22;789;51.612;7.510;2022-10-16T15:11:44;21.40;1.00
1592;DHT22;789;51.612;7.510;2022-10-16T15:14:12;21.40;1.00
1592;DHT22;789;51.612;7.510;2022-10-16T15:16:39;21.40;1.00
1592;DHT22;789;51.612;7.510;2022-10-16T15:19:05;21.40;1.00
1592;DHT22;789;51.612;7.510;2022-10-16T15:21:32;21.50;1.00
1592;DHT22;789;51.612;7.510;2022-10-16T15:24:00;21.40;1.00
1592;DHT22;789;51.612;7.510;2022-10-16T15:26:28;21.40;1.00
1592;DHT22;789;51.612;7.510;2022-10-16T15:28:55;21.40;1.00
1592;DHT22;789;51.612;7.510;2022-10-16T15:31:23;21.40;1.00
1592;DHT22;789;51.612;7.510;2022-10-16T15:33:50;21.30;1.00
1592;DHT22;789;51.612;7.510;2022-10-16T15:36:25;21.30;1.00
1592;DHT22;789;51.612;7.510;2022-10-16T15:38:52;21.20;1.00
1592;DHT22;789;51.612;7.510;2022-10-16T15:41:20;21.20;1.00
1592;DHT22;789;51.612;7.510;2022-10-16T15:43:48;21.20;1.00
1592;DHT22;789;51.612;7.510;2022-10-16T15:46:18;21.20;1.00
1592;DHT22;789;51.612;7.510;2022-10-16T15:48:46;21.20;1.00
1592;DHT22;789;51.612;7.510;2022-10-16T15:51:13;21.20;1.00
1592;DHT22;789;51.612;7.510;2022-10-16T15:53:41;21.20;1.00
1592;DHT22;789;51.612;7.510;2022-10-16T15:56:13;21.20;1.00
1592;DHT22;789;51.612;7.510;2022-10-16T15:58:42;21.20;1.00
1592;DHT22;789;51.612;7.510;2022-10-16T16:01:09;21.20;1.00
1592;DHT22;789;51.612;7.510;2022-10-16T16:03:37;21.20;1.00
1592;DHT22;789;51.612;7.510;2022-10-16T16:06:07;21.50;1.00
1592;DHT22;789;51.612;7.510;2022-10-16T16:08:34;21.10;1.00
1592;DHT22;789;51.612;7.510;2022-10-16T16:11:03;21.10;1.00
1592;DHT22;789;51.612;7.510;2022-10-16T16:13:30;21.00;1.00
1592;DHT22;789;51.612;7.510;2022-10-16T16:15:58;20.90;1.00
1592;DHT22;789;51.612;7.510;2022-10-16T16:18:25;20.90;1.00
1592;DHT22;789;51.612;7.510;2022-10-16T16:20:54;20.90;1.00
1592;DHT22;789;51.612;7.510;2022-10-16T16:23:21;20.80;1.00
1592;DHT22;789;51.612;7.510;2022-10-16T16:26:03;20.80;1.00
1592;DHT22;789;51.612;7.510;2022-10-16T16:28:30;20.80;1.00
1592;DHT22;789;51.612;7.510;2022-10-16T16:30:59;20.70;1.00
1592;DHT22;789;51.612;7.510;2022-10-16T16:33:26;20.70;1.00
1592;DHT22;789;51.612;7.510;2022-10-16T16:35:57;20.60;1.00
1592;DHT22;789;51.612;7.510;2022-10-16T16:38:24;20.60;1.00
1592;DHT22;789;51.612;7.510;2022-10-16T16:40:51;20.40;1.00
1592;DHT22;789;51.612;7.510;2022-10-16T16:43:18;20.40;1.00
1592;DHT22;789;51.612;7.510;2022-10-16T16:45:45;20.30;1.00
1592;DHT22;789;51.612;7.510;2022-10-16T16:48:13;20.30;1.00
1592;DHT22;789;51.612;7.510;2022-10-16T16:50:39;20.20;1.00
1592;DHT22;789;51.612;7.510;2022-10-16T16:53:06;20.20;1.00